.
WxDataArchive / Data Records for 2009-04-01
2009-03-31 April 2009 2009-04-02

Data Records for Wednesday, 01 April 2009

Time	Temp	Chill	HIndex	Humid	Dewpt	 Wind 	HiWind	WindDir	Rain 	Barom 
-----	----	-----	------	-----	-----	------	------	-------	-----	----- 
00:00	47.3	45.8	47.3	79	41.1	4	9	270	0.00	29.700 
00:05	46.5	46.5	46.5	81	41.0	3	4	270	0.00	29.694 
00:10	46.0	46.0	46.0	81	40.5	3	6	270	0.00	29.694 
00:15	45.7	45.7	45.7	82	40.5	2	4	270	0.00	29.681 
00:20	45.4	45.4	45.4	82	40.2	3	9	270	0.00	29.695 
00:25	45.2	45.2	45.2	82	40.0	3	6	270	0.00	29.694 
00:30	45.2	45.2	45.2	82	40.0	3	9	270	0.00	29.695 
00:35	45.1	43.2	45.1	81	39.6	4	8	270	0.00	29.704 
00:40	45.1	43.2	45.1	81	39.6	4	9	270	0.00	29.708 
00:45	44.9	44.9	44.9	81	39.4	3	7	270	0.00	29.710 
00:50	44.8	44.8	44.8	81	39.3	3	10	270	0.00	29.713 
00:55	44.8	44.8	44.8	81	39.3	3	6	270	0.00	29.718 
01:00	44.6	44.6	44.6	82	39.4	3	7	270	0.00	29.716 
01:05	44.5	44.5	44.5	83	39.7	3	10	270	0.00	29.721 
01:10	44.1	44.1	44.1	81	38.6	3	9	270	0.00	29.718 
01:15	43.5	41.4	43.5	77	36.8	4	7	270	0.00	29.720 
01:20	43.2	43.2	43.2	77	36.5	2	6	270	0.00	29.720 
01:25	43.1	43.1	43.1	76	36.1	2	6	270	0.00	29.724 
01:30	42.9	42.9	42.9	76	35.9	2	9	270	0.00	29.727 
01:35	42.8	42.8	42.8	76	35.8	3	7	270	0.00	29.728 
01:40	42.8	42.8	42.8	75	35.4	2	4	270	0.00	29.728 
01:45	42.6	42.6	42.6	75	35.2	2	5	248	0.00	29.729 
01:50	42.5	42.5	42.5	75	35.1	2	4	248	0.00	29.728 
01:55	42.5	42.5	42.5	75	35.1	2	5	270	0.00	29.726 
02:00	42.5	42.5	42.5	75	35.1	2	5	248	0.00	29.726 
02:05	42.3	42.3	42.3	75	35.0	1	4	248	0.00	29.726 
02:10	42.3	42.3	42.3	74	34.6	1	5	292	0.00	29.727 
02:15	42.3	42.3	42.3	74	34.6	2	7	270	0.00	29.726 
02:20	42.3	42.3	42.3	74	34.6	1	2	270	0.00	29.728 
02:25	42.2	42.2	42.2	74	34.5	2	7	248	0.00	29.733 
02:30	42.2	42.2	42.2	74	34.5	1	4	248	0.00	29.728 
02:35	42.2	42.2	42.2	73	34.2	1	4	248	0.00	29.727 
02:40	42.2	42.2	42.2	73	34.2	1	4	248	0.00	29.726 
02:45	42.1	42.1	42.1	72	33.7	1	5	248	0.00	29.726 
02:50	41.8	41.8	41.8	71	33.1	1	3	248	0.00	29.726 
02:55	41.5	41.5	41.5	71	32.8	0	2	248	0.00	29.728 
03:00	41.2	41.2	41.2	71	32.5	1	4	248	0.00	29.736 
03:05	41.1	41.1	41.1	72	32.8	1	3	248	0.00	29.740 
03:10	40.8	40.8	40.8	72	32.5	0	2	248	0.00	29.740 
03:15	40.6	40.6	40.6	72	32.3	0	2	248	0.00	29.742 
03:20	40.5	40.5	40.5	73	32.5	0	2	248	0.00	29.742 
03:25	40.3	40.3	40.3	73	32.3	0	2	248	0.00	29.744 
03:30	40.2	40.2	40.2	73	32.2	0	2	248	0.00	29.738 
03:35	40.1	40.1	40.1	73	32.2	0	2	248	0.00	29.739 
03:40	39.6	39.6	39.6	74	32.0	0	0	---	0.00	29.732 
03:45	39.2	39.2	39.2	74	31.6	0	0	---	0.00	29.729 
03:50	38.9	38.9	38.9	75	31.7	0	0	---	0.00	29.728 
03:55	38.5	38.5	38.5	76	31.6	0	0	---	0.00	29.728 
04:00	38.2	38.2	38.2	77	31.6	0	0	---	0.00	29.730 
04:05	37.9	37.9	37.9	77	31.3	0	1	248	0.00	29.728 
04:10	37.6	37.6	37.6	79	31.7	0	1	248	0.00	29.729 
04:15	37.3	37.3	37.3	80	31.7	0	0	---	0.00	29.730 
04:20	37.3	37.3	37.3	81	32.0	0	1	248	0.00	29.730 
04:25	37.3	37.3	37.3	82	32.3	0	1	248	0.00	29.730 
04:30	37.5	37.5	37.5	82	32.5	0	2	248	0.00	29.730 
04:35	37.5	37.5	37.5	82	32.5	0	2	248	0.00	29.727 
04:40	37.5	37.5	37.5	82	32.5	0	2	248	0.00	29.728 
04:45	37.6	37.6	37.6	81	32.3	0	3	248	0.00	29.728 
04:50	37.6	37.6	37.6	81	32.3	0	2	248	0.00	29.728 
04:55	37.6	37.6	37.6	81	32.3	0	2	248	0.00	29.729 
05:00	37.6	37.6	37.6	80	32.0	0	2	248	0.00	29.730 
05:05	37.5	37.5	37.5	80	31.9	0	2	248	0.00	29.734 
05:10	37.5	37.5	37.5	79	31.6	0	2	248	0.00	29.736 
05:15	37.5	37.5	37.5	78	31.3	0	2	248	0.00	29.742 
05:20	37.3	37.3	37.3	78	31.1	0	1	248	0.00	29.746 
05:25	37.2	37.2	37.2	78	31.0	0	1	248	0.00	29.749 
05:30	37.0	37.0	37.0	78	30.8	0	1	248	0.00	29.750 
05:35	36.9	36.9	36.9	79	31.0	0	2	248	0.00	29.750 
05:40	36.6	36.6	36.6	79	30.7	0	1	248	0.00	29.752 
05:45	36.5	36.5	36.5	79	30.6	0	1	248	0.00	29.757 
05:50	36.5	36.5	36.5	79	30.6	0	1	248	0.00	29.760 
05:55	36.3	36.3	36.3	79	30.4	0	1	248	0.00	29.761 
06:00	36.3	36.3	36.3	79	30.4	0	1	248	0.00	29.764 
06:05	36.3	36.3	36.3	78	30.1	0	1	248	0.00	29.764 
06:10	36.3	36.3	36.3	78	30.1	0	1	248	0.00	29.763 
06:15	36.3	36.3	36.3	78	30.1	0	3	248	0.00	29.764 
06:20	36.5	36.5	36.5	77	30.0	0	2	248	0.00	29.765 
06:25	36.3	36.3	36.3	77	29.8	0	2	90	0.00	29.766 
06:30	36.3	36.3	36.3	77	29.8	0	2	90	0.00	29.767 
06:35	36.3	36.3	36.3	77	29.8	0	2	90	0.00	29.770 
06:40	36.5	36.5	36.5	77	30.0	0	1	90	0.00	29.769 
06:45	36.5	36.5	36.5	77	30.0	0	2	90	0.00	29.771 
06:50	36.6	36.6	36.6	77	30.1	0	2	90	0.00	29.773 
06:55	36.8	36.8	36.8	76	30.0	0	2	90	0.00	29.773 
07:00	37.0	37.0	37.0	76	30.2	1	2	90	0.00	29.775 
07:05	37.6	37.6	37.6	74	30.1	1	3	292	0.00	29.773 
07:10	38.0	38.0	38.0	73	30.1	2	4	292	0.00	29.776 
07:15	38.5	38.5	38.5	73	30.6	1	4	292	0.00	29.776 
07:20	39.1	39.1	39.1	72	30.8	1	4	270	0.00	29.775 
07:25	39.5	39.5	39.5	70	30.5	1	6	45	0.00	29.776 
07:30	39.9	39.9	39.9	69	30.6	1	6	270	0.00	29.777 
07:35	40.3	40.3	40.3	69	31.0	2	6	248	0.00	29.779 
07:40	40.8	40.8	40.8	68	31.1	1	4	270	0.00	29.778 
07:45	41.1	41.1	41.1	67	31.0	1	4	248	0.00	29.780 
07:50	41.5	41.5	41.5	67	31.4	2	6	225	0.00	29.782 
07:55	41.8	41.8	41.8	67	31.7	1	4	248	0.00	29.782 
08:00	42.1	42.1	42.1	66	31.6	2	5	270	0.00	29.783 
08:05	42.3	42.3	42.3	65	31.4	2	7	248	0.00	29.785 
08:10	42.6	42.6	42.6	64	31.3	2	7	270	0.00	29.788 
08:15	42.8	42.8	42.8	64	31.5	2	10	270	0.00	29.788 
08:20	43.1	40.9	43.1	62	31.0	4	9	270	0.00	29.790 
08:25	43.3	43.3	43.3	63	31.6	2	9	270	0.00	29.790 
08:30	43.6	43.6	43.6	62	31.5	3	6	248	0.00	29.788 
08:35	43.9	43.9	43.9	62	31.7	2	9	248	0.00	29.788 
08:40	44.3	44.3	44.3	62	32.1	2	6	270	0.00	29.789 
08:45	44.6	44.6	44.6	61	32.0	3	10	248	0.00	29.786 
08:50	44.6	41.9	44.6	60	31.6	5	11	248	0.00	29.787 
08:55	44.9	43.0	44.9	60	31.9	4	11	270	0.00	29.787 
09:00	45.2	43.3	45.2	60	32.1	4	9	248	0.00	29.788 
09:05	45.7	45.7	45.7	60	32.6	3	10	248	0.00	29.788 
09:10	46.2	44.5	46.2	60	33.1	4	11	270	0.00	29.792 
09:15	46.4	44.0	46.4	57	32.0	5	10	270	0.00	29.791 
09:20	46.7	44.3	46.7	56	31.8	5	12	248	0.00	29.793 
09:25	47.1	44.8	47.1	54	31.3	5	11	270	0.00	29.794 
09:30	47.1	44.8	47.1	54	31.3	5	12	270	0.00	29.797 
09:35	47.6	46.1	47.6	54	31.8	4	10	248	0.00	29.798 
09:40	47.6	44.8	47.6	50	29.9	6	18	248	0.00	29.799 
09:45	47.3	44.5	47.3	50	29.6	6	14	270	0.00	29.801 
09:50	47.4	44.1	47.4	49	29.2	7	19	248	0.00	29.799 
09:55	47.6	44.8	47.6	50	29.9	6	14	270	0.00	29.797 
10:00	47.9	45.8	47.9	50	30.2	5	15	248	0.00	29.798 
10:05	48.0	44.8	48.0	49	29.8	7	15	270	0.00	29.796 
10:10	47.9	45.2	47.9	50	30.2	6	14	270	0.00	29.787 
10:15	47.9	45.2	47.9	50	30.2	6	16	270	0.00	29.789 
10:20	48.5	46.5	48.5	51	31.2	5	13	270	0.00	29.790 
10:25	48.2	45.5	48.2	49	29.9	6	13	248	0.00	29.790 
10:30	48.3	46.2	48.3	50	30.5	5	13	248	0.00	29.794 
10:35	48.8	46.2	48.8	46	28.9	6	13	248	0.00	29.790 
10:40	48.8	46.2	48.8	46	28.9	6	14	270	0.00	29.796 
10:45	49.2	47.3	49.2	47	29.8	5	14	270	0.00	29.798 
10:50	49.8	48.6	49.8	46	29.9	4	11	270	0.00	29.797 
10:55	49.6	47.7	49.6	45	29.1	5	13	270	0.00	29.799 
11:00	49.9	48.8	49.9	46	30.0	4	13	248	0.00	29.799 
11:05	49.6	47.2	49.6	46	29.7	6	14	270	0.00	29.802 
11:10	49.6	47.2	49.6	47	30.2	6	12	270	0.00	29.801 
11:15	49.8	48.0	49.8	46	29.9	5	13	270	0.00	29.798 
11:20	49.6	46.7	49.6	47	30.2	7	14	270	0.00	29.803 
11:25	49.6	47.2	49.6	48	30.7	6	15	270	0.00	29.803 
11:30	50.4	50.4	50.4	47	30.9	5	12	248	0.00	29.806 
11:35	50.5	50.5	50.5	46	30.5	5	15	270	0.00	29.804 
11:40	50.8	50.8	50.8	47	31.3	4	11	248	0.00	29.804 
11:45	51.0	51.0	51.0	44	29.9	6	19	248	0.00	29.806 
11:50	50.7	50.7	50.7	46	30.7	7	15	270	0.00	29.807 
11:55	50.8	50.8	50.8	43	29.1	6	16	248	0.00	29.805 
12:00	51.0	51.0	51.0	43	29.3	6	13	270	0.00	29.806 
12:05	51.3	51.3	51.3	42	29.0	6	16	270	0.00	29.806 
12:10	51.6	51.6	51.6	43	29.8	5	12	248	0.00	29.811 
12:15	51.7	51.7	51.7	43	29.9	6	16	270	0.00	29.809 
12:20	51.7	51.7	51.7	41	28.8	7	14	248	0.00	29.810 
12:25	52.2	52.2	52.2	40	28.6	7	16	270	0.00	29.814 
12:30	52.2	52.2	52.2	39	28.0	9	22	270	0.00	29.810 
12:35	52.3	52.3	52.3	39	28.1	6	16	270	0.00	29.812 
12:40	52.5	52.5	52.5	39	28.3	7	14	270	0.00	29.813 
12:45	52.5	52.5	52.5	39	28.3	8	16	248	0.00	29.817 
12:50	52.8	52.8	52.8	39	28.5	6	15	270	0.00	29.812 
12:55	53.3	53.3	53.3	39	29.0	6	19	270	0.00	29.816 
13:00	53.3	53.3	53.3	39	29.0	7	14	270	0.00	29.815 
13:05	53.5	53.5	53.5	41	30.4	6	16	270	0.00	29.821 
13:10	53.3	53.3	53.3	37	27.7	8	18	248	0.00	29.823 
13:15	53.2	53.2	53.2	37	27.6	7	16	270	0.00	29.822 
13:20	53.3	53.3	53.3	37	27.7	7	17	270	0.00	29.824 
13:25	53.3	53.3	53.3	35	26.4	8	16	270	0.00	29.822 
13:30	53.3	53.3	53.3	38	28.3	8	16	270	0.00	29.822 
13:35	53.5	53.5	53.5	38	28.5	8	14	270	0.00	29.822 
13:40	53.9	53.9	53.9	38	28.9	6	13	248	0.00	29.822 
13:45	54.5	54.5	54.5	39	30.1	4	12	248	0.00	29.821 
13:50	55.3	55.3	55.3	35	28.1	5	13	248	0.00	29.822 
13:55	55.1	55.1	55.1	34	27.2	6	14	248	0.00	29.819 
14:00	55.0	55.0	55.0	31	24.9	6	17	270	0.00	29.820 
14:05	54.5	54.5	54.5	31	24.5	8	16	248	0.00	29.822 
14:10	55.0	55.0	55.0	33	26.4	6	15	270	0.00	29.821 
14:15	55.1	55.1	55.1	30	24.2	6	16	270	0.00	29.822 
14:20	55.3	55.3	55.3	35	28.1	5	12	270	0.00	29.822 
14:25	55.6	55.6	55.6	32	26.2	6	14	248	0.00	29.822 
14:30	55.4	55.4	55.4	28	22.8	7	15	248	0.00	29.823 
14:35	55.6	55.6	55.6	28	23.0	6	15	270	0.00	29.822 
14:40	55.7	55.7	55.7	25	20.4	7	14	270	0.00	29.824 
14:45	56.0	56.0	56.0	27	22.5	6	13	270	0.00	29.822 
14:50	56.0	56.0	56.0	28	23.4	5	12	270	0.00	29.822 
14:55	55.9	55.9	55.9	26	21.5	7	14	270	0.00	29.832 
15:00	56.0	56.0	56.0	27	22.5	4	9	270	0.00	29.824 
15:05	56.0	56.0	56.0	27	22.5	7	17	270	0.00	29.824 
15:10	55.7	55.7	55.7	26	21.4	7	14	270	0.00	29.827 
15:15	55.4	55.4	55.4	26	21.1	7	13	270	0.00	29.827 
15:20	56.0	56.0	56.0	26	21.6	5	17	270	0.00	29.827 
15:25	56.0	56.0	56.0	27	22.5	6	12	270	0.00	29.829 
15:30	56.0	56.0	56.0	26	21.6	7	14	248	0.00	29.829 
15:35	55.9	55.9	55.9	27	22.4	6	14	270	0.00	29.829 
15:40	55.9	55.9	55.9	26	21.5	5	10	270	0.00	29.825 
15:45	56.2	56.2	56.2	23	18.9	4	7	270	0.00	29.825 
15:50	56.3	56.3	56.3	24	20.0	6	17	270	0.00	29.829 
15:55	56.3	56.3	56.3	26	21.9	6	14	270	0.00	29.829 
16:00	56.0	56.0	56.0	25	20.7	6	11	270	0.00	29.831 
16:05	56.3	56.3	56.3	28	23.6	4	9	270	0.00	29.829 
16:10	56.5	56.5	56.5	27	22.9	6	16	270	0.00	29.830 
16:15	56.5	56.5	56.5	28	23.8	5	13	248	0.00	29.829 
16:20	56.2	56.2	56.2	27	22.7	7	18	270	0.00	29.831 
16:25	56.2	56.2	56.2	27	22.7	5	9	270	0.00	29.837 
16:30	55.9	55.9	55.9	28	23.3	6	12	270	0.00	29.836 
16:35	55.9	55.9	55.9	28	23.3	5	11	270	0.00	29.839 
16:40	56.0	56.0	56.0	29	24.2	4	9	270	0.00	29.839 
16:45	56.3	56.3	56.3	29	24.5	5	12	248	0.00	29.840 
16:50	56.5	56.5	56.5	27	22.9	4	11	270	0.00	29.842 
16:55	56.5	56.5	56.5	27	22.9	6	13	270	0.00	29.845 
17:00	56.2	56.2	56.2	29	24.4	6	13	270	0.00	29.846 
17:05	56.0	56.0	56.0	29	24.2	6	15	248	0.00	29.849 
17:10	56.0	56.0	56.0	29	24.2	6	13	270	0.00	29.849 
17:15	56.0	56.0	56.0	30	25.0	6	14	270	0.00	29.855 
17:20	55.9	55.9	55.9	28	23.3	7	16	270	0.00	29.855 
17:25	55.7	55.7	55.7	29	23.9	6	14	270	0.00	29.857 
17:30	55.6	55.6	55.6	29	23.9	6	13	270	0.00	29.857 
17:35	55.6	55.6	55.6	29	23.9	5	11	270	0.00	29.858 
17:40	55.6	55.6	55.6	30	24.7	5	13	248	0.00	29.858 
17:45	55.6	55.6	55.6	31	25.5	3	11	270	0.00	29.859 
17:50	55.6	55.6	55.6	31	25.5	5	15	270	0.00	29.866 
17:55	55.4	55.4	55.4	30	24.5	5	18	270	0.00	29.867 
18:00	55.1	55.1	55.1	29	23.4	4	11	270	0.00	29.867 
18:05	55.0	55.0	55.0	30	24.1	4	11	270	0.00	29.866 
18:10	54.8	54.8	54.8	30	24.0	4	11	270	0.00	29.867 
18:15	54.7	54.7	54.7	31	24.7	5	12	270	0.00	29.869 
18:20	54.5	54.5	54.5	31	24.5	5	12	270	0.00	29.869 
18:25	54.4	54.4	54.4	31	24.4	3	9	270	0.00	29.872 
18:30	54.2	54.2	54.2	31	24.2	4	11	270	0.00	29.874 
18:35	53.9	53.9	53.9	32	24.7	4	12	270	0.00	29.875 
18:40	53.8	53.8	53.8	32	24.6	4	10	248	0.00	29.878 
18:45	53.6	53.6	53.6	33	25.2	3	9	248	0.00	29.880 
18:50	53.3	53.3	53.3	34	25.7	1	3	248	0.00	29.885 
18:55	53.2	53.2	53.2	34	25.6	2	5	248	0.00	29.885 
19:00	53.1	53.1	53.1	35	26.2	3	6	248	0.00	29.887 
19:05	52.9	52.9	52.9	35	26.0	2	6	248	0.00	29.885 
19:10	52.8	52.8	52.8	36	26.6	2	6	248	0.00	29.885 
19:15	52.8	52.8	52.8	36	26.6	2	7	248	0.00	29.886 
19:20	52.6	52.6	52.6	36	26.4	3	6	248	0.00	29.887 
19:25	52.5	52.5	52.5	36	26.3	2	5	248	0.00	29.887 
19:30	52.3	52.3	52.3	36	26.1	2	6	248	0.00	29.891 
19:35	52.2	52.2	52.2	37	26.7	1	3	248	0.00	29.889 
19:40	51.9	51.9	51.9	38	27.1	1	4	248	0.00	29.892 
19:45	51.7	51.7	51.7	38	26.9	1	4	248	0.00	29.896 
19:50	51.6	51.6	51.6	39	27.5	1	3	248	0.00	29.897 
19:55	51.3	51.3	51.3	39	27.2	1	4	248	0.00	29.901 
20:00	51.0	51.0	51.0	40	27.5	0	2	248	0.00	29.901 
20:05	50.5	50.5	50.5	41	27.7	0	2	248	0.00	29.897 
20:10	50.1	50.1	50.1	42	27.9	0	1	248	0.00	29.900 
20:15	49.8	49.8	49.8	43	28.2	0	2	248	0.00	29.901 
20:20	49.4	49.4	49.4	44	28.4	0	1	248	0.00	29.901 
20:25	49.1	49.1	49.1	45	28.7	0	2	248	0.00	29.901 
20:30	48.8	48.8	48.8	45	28.4	0	1	248	0.00	29.902 
20:35	48.5	48.5	48.5	46	28.7	0	1	248	0.00	29.902 
20:40	48.2	48.2	48.2	46	28.4	0	1	248	0.00	29.904 
20:45	48.0	48.0	48.0	47	28.7	0	1	248	0.00	29.904 
20:50	47.9	47.9	47.9	48	29.2	0	1	248	0.00	29.904 
20:55	47.6	47.6	47.6	48	28.9	0	0	---	0.00	29.904 
21:00	47.3	47.3	47.3	50	29.6	0	0	---	0.00	29.904 
21:05	47.0	47.0	47.0	50	29.3	0	0	---	0.00	29.903 
21:10	46.7	46.7	46.7	50	29.1	0	0	---	0.00	29.904 
21:15	46.4	46.4	46.4	50	28.8	0	0	---	0.00	29.904 
21:20	46.1	46.1	46.1	52	29.5	0	0	---	0.00	29.903 
21:25	45.8	45.8	45.8	53	29.7	0	0	---	0.00	29.903 
21:30	45.5	45.5	45.5	53	29.4	0	0	---	0.00	29.905 
21:35	45.4	45.4	45.4	53	29.3	0	0	---	0.00	29.909 
21:40	45.2	45.2	45.2	54	29.6	0	0	---	0.00	29.911 
21:45	45.1	45.1	45.1	54	29.5	0	0	---	0.00	29.913 
21:50	44.8	44.8	44.8	55	29.6	0	0	---	0.00	29.912 
21:55	44.6	44.6	44.6	56	29.9	0	0	---	0.00	29.912 
22:00	44.6	44.6	44.6	57	30.3	0	0	---	0.00	29.913 
22:05	44.8	44.8	44.8	57	30.5	0	0	---	0.00	29.913 
22:10	44.8	44.8	44.8	57	30.5	0	0	---	0.00	29.913 
22:15	44.8	44.8	44.8	57	30.5	0	0	---	0.00	29.913 
22:20	44.9	44.9	44.9	57	30.6	0	0	---	0.00	29.910 
22:25	44.9	44.9	44.9	57	30.6	0	0	---	0.00	29.912 
22:30	44.8	44.8	44.8	57	30.5	0	0	---	0.00	29.916 
22:35	44.8	44.8	44.8	58	30.9	0	0	---	0.00	29.917 
22:40	44.6	44.6	44.6	57	30.3	0	0	---	0.00	29.917 
22:45	44.5	44.5	44.5	58	30.7	0	0	---	0.00	29.918 
22:50	44.3	44.3	44.3	57	30.0	0	0	---	0.00	29.919 
22:55	44.2	44.2	44.2	58	30.4	0	0	---	0.00	29.918 
23:00	44.1	44.1	44.1	58	30.3	0	0	---	0.00	29.919 
23:05	44.1	44.1	44.1	60	31.1	0	0	---	0.00	29.920 
23:10	43.9	43.9	43.9	60	30.9	0	0	---	0.00	29.921 
23:15	43.9	43.9	43.9	60	30.9	0	0	---	0.00	29.923 
23:20	44.1	44.1	44.1	60	31.1	0	0	---	0.00	29.925 
23:25	44.1	44.1	44.1	60	31.1	0	0	---	0.00	29.925 
23:30	44.2	44.2	44.2	60	31.2	0	0	---	0.00	29.926 
23:35	44.5	44.5	44.5	60	31.5	0	0	---	0.00	29.926 
23:40	44.8	44.8	44.8	59	31.4	0	0	---	0.00	29.926 
23:45	45.1	45.1	45.1	59	31.6	0	0	---	0.00	29.926 
23:50	45.2	45.2	45.2	58	31.3	0	0	---	0.00	29.927 
23:55	45.4	45.4	45.4	58	31.5	0	0	---	0.00	29.930 

CoCoRaHS
IN-AL-39
A2 Web Hosting
Creative Commons License
GoDaddy
search engine by freefind advanced

loaded 2018-11-17 23:13:34 • last modified 2010-11-18 10:43:29
Privacy PolicyDisclaimer
• wx.awcolley.com is powered by PmWiki v.2002016 •
• all content (unless otherwise noted) © 2018 A W Colley